Time;durP1;ratioP1;P1;durP2;ratioP2;P2;SDS_P1;SDS_P2;PMS_P1;PMS_P2;Temp;Humidity;BMP_temperature;BMP_pressure;BME280_temperature;BME280_humidity;BME280_pressure;Samples;Min_cycle;Max_cycle;Signal;HPM_P1;HPM_P2
2024/04/17 00:04:05;;;;;;;1.33;1.23;;;;;;;7.04;100.00;101194.88;11059944;26;20136;-68
2024/04/17 00:09:06;;;;;;;8.98;2.08;;;;;;;7.12;100.00;101202.97;11060519;26;19997;-68
2024/04/17 00:14:06;;;;;;;4.15;1.83;;;;;;;7.16;100.00;101212.38;11061297;26;20008;-68
2024/04/17 00:19:07;;;;;;;4.35;1.88;;;;;;;7.12;100.00;101209.19;11060711;26;20008;-68
2024/04/17 00:24:07;;;;;;;3.35;1.23;;;;;;;7.06;100.00;101209.84;11059579;26;20429;-68
2024/04/17 00:29:07;;;;;;;6.63;2.15;;;;;;;6.88;100.00;101201.06;11059622;26;19997;-69
2024/04/17 00:34:08;;;;;;;3.40;1.63;;;;;;;6.78;100.00;101193.16;11059031;26;20004;-69
2024/04/17 00:39:08;;;;;;;3.30;1.40;;;;;;;6.69;100.00;101196.81;11059441;26;20392;-69
2024/04/17 00:44:08;;;;;;;3.72;1.55;;;;;;;6.55;100.00;101186.72;11068654;26;20020;-73
2024/04/17 00:49:09;;;;;;;1.17;1.17;;;;;;;6.42;100.00;101182.66;11068990;26;20007;-74
2024/04/17 00:54:09;;;;;;;3.90;2.13;;;;;;;6.24;100.00;101177.34;11065573;26;20000;-74
2024/04/17 00:59:10;;;;;;;4.20;1.25;;;;;;;6.14;100.00;101187.41;11065713;26;20001;-73
2024/04/17 01:04:10;;;;;;;1.42;1.30;;;;;;;6.16;100.00;101180.03;11065845;26;20005;-73
2024/04/17 01:09:11;;;;;;;1.40;1.10;;;;;;;6.17;100.00;101180.88;11065084;26;20289;-74
2024/04/17 01:14:11;;;;;;;2.88;1.63;;;;;;;6.22;100.00;101178.53;11066333;26;20008;-72
2024/04/17 01:19:12;;;;;;;4.18;1.50;;;;;;;6.18;100.00;101171.78;11066064;26;20025;-74
2024/04/17 01:24:12;;;;;;;6.22;2.63;;;;;;;6.11;100.00;101171.59;11063682;26;20000;-72
2024/04/17 01:29:12;;;;;;;3.83;2.95;;;;;;;6.23;100.00;101164.94;11067743;26;20441;-70
2024/04/17 01:34:13;;;;;;;3.78;1.38;;;;;;;6.41;100.00;101158.59;11066939;26;20418;-72
2024/04/17 01:39:13;;;;;;;13.93;2.60;;;;;;;6.50;100.00;101154.91;11066434;26;20029;-72
2024/04/17 01:44:14;;;;;;;1.60;1.45;;;;;;;6.57;100.00;101152.41;11064160;26;20414;-74
2024/04/17 01:49:14;;;;;;;10.43;2.08;;;;;;;6.61;100.00;101154.59;11066236;26;20012;-74
2024/04/17 01:54:14;;;;;;;10.90;2.80;;;;;;;6.58;100.00;101152.25;11063190;26;20001;-72
2024/04/17 01:59:15;;;;;;;9.63;2.38;;;;;;;6.71;100.00;101168.75;11063597;26;19997;-73
2024/04/17 02:04:15;;;;;;;5.38;3.05;;;;;;;6.75;100.00;101163.88;11065270;26;20029;-73
2024/04/17 02:09:16;;;;;;;7.30;1.77;;;;;;;6.72;100.00;101154.28;11065507;26;20012;-76
2024/04/17 02:14:16;;;;;;;9.55;2.75;;;;;;;6.56;100.00;101159.63;11067612;26;20005;-73
2024/04/17 02:19:17;;;;;;;9.98;2.65;;;;;;;6.40;100.00;101157.75;11035842;26;20008;-75
2024/04/17 02:24:17;;;;;;;15.65;4.40;;;;;;;6.30;100.00;101162.44;11064359;26;20001;-74
2024/04/17 02:29:17;;;;;;;3.90;2.78;;;;;;;6.15;100.00;101154.13;11064779;26;20093;-71
2024/04/17 02:34:18;;;;;;;14.95;3.90;;;;;;;6.04;100.00;101155.28;11063483;26;20419;-73
2024/04/17 02:39:18;;;;;;;10.35;3.30;;;;;;;5.98;100.00;101160.47;11063374;26;20078;-73
2024/04/17 02:44:19;;;;;;;13.38;3.92;;;;;;;5.87;100.00;101158.88;11063463;26;20005;-72
2024/04/17 02:49:19;;;;;;;8.90;2.97;;;;;;;5.77;100.00;101150.91;11062129;26;19997;-73
2024/04/17 02:54:20;;;;;;;10.93;2.67;;;;;;;5.70;100.00;101157.09;11064765;26;20417;-74
2024/04/17 02:59:20;;;;;;;9.55;3.35;;;;;;;5.71;100.00;101151.56;11064133;26;19996;-73
2024/04/17 03:04:20;;;;;;;5.82;2.72;;;;;;;5.70;100.00;101147.19;11061821;26;20033;-73
2024/04/17 03:09:21;;;;;;;11.25;4.07;;;;;;;5.72;100.00;101168.53;11060936;26;19993;-73
2024/04/17 03:14:21;;;;;;;5.88;2.83;;;;;;;5.75;100.00;101162.84;11063474;26;20092;-70
2024/04/17 03:19:22;;;;;;;10.77;2.88;;;;;;;5.79;100.00;101175.78;11063203;26;20001;-72
2024/04/17 03:24:22;;;;;;;3.03;2.70;;;;;;;5.63;100.00;101170.31;11061880;26;19997;-72
2024/04/17 03:29:22;;;;;;;13.10;4.18;;;;;;;5.52;100.00;101184.88;11062259;26;19997;-71
2024/04/17 03:34:23;;;;;;;8.57;2.47;;;;;;;5.51;100.00;101174.25;11060393;26;20074;-74
2024/04/17 03:39:23;;;;;;;5.50;2.40;;;;;;;5.48;100.00;101188.00;11061737;26;20007;-76
2024/04/17 03:44:23;;;;;;;11.93;3.10;;;;;;;5.56;100.00;101193.44;11061818;26;20404;-72
2024/04/17 03:49:24;;;;;;;11.27;3.53;;;;;;;5.79;100.00;101194.59;11061720;26;20008;-73
2024/04/17 03:54:24;;;;;;;28.98;4.60;;;;;;;5.71;100.00;101199.06;11061636;26;20071;-70
2024/04/17 03:59:25;;;;;;;4.82;3.20;;;;;;;5.77;100.00;101195.75;11061193;26;19997;-72
2024/04/17 04:04:25;;;;;;;16.42;4.20;;;;;;;5.95;100.00;101201.09;11061142;26;19997;-72
2024/04/17 04:09:25;;;;;;;19.83;3.50;;;;;;;5.90;100.00;101195.31;11060505;26;20013;-72
2024/04/17 04:14:27;;;;;;;20.48;3.80;;;;;;;5.92;100.00;101199.53;11061774;26;19993;-71
2024/04/17 04:19:27;;;;;;;10.35;2.70;;;;;;;6.15;100.00;101194.47;11068202;26;20071;-70
2024/04/17 04:24:28;;;;;;;23.90;3.67;;;;;;;6.19;100.00;101200.34;11069531;26;20032;-72
2024/04/17 04:29:28;;;;;;;16.33;3.42;;;;;;;6.10;100.00;101191.44;11067646;26;20004;-73
2024/04/17 04:34:28;;;;;;;8.85;3.15;;;;;;;6.03;100.00;101188.53;11069579;26;20001;-73
2024/04/17 04:39:29;;;;;;;10.07;4.00;;;;;;;5.91;100.00;101191.66;11064820;26;20008;-73
2024/04/17 04:44:29;;;;;;;11.15;4.65;;;;;;;5.82;100.00;101196.13;11065617;26;20403;-70
2024/04/17 04:49:30;;;;;;;9.05;3.08;;;;;;;5.69;100.00;101190.34;11065878;26;20004;-71
2024/04/17 04:54:30;;;;;;;11.73;3.35;;;;;;;5.75;100.00;101200.47;11065227;26;19997;-71
2024/04/17 04:59:31;;;;;;;4.45;3.00;;;;;;;5.91;100.00;101199.72;11066457;26;20008;-70
2024/04/17 05:04:31;;;;;;;7.95;2.65;;;;;;;6.14;100.00;101200.84;11066404;26;20415;-72
2024/04/17 05:09:31;;;;;;;13.02;3.90;;;;;;;6.48;100.00;101194.59;11006990;26;20011;-73
2024/04/17 05:14:32;;;;;;;8.30;3.10;;;;;;;6.84;100.00;101194.34;11066002;26;20041;-70
2024/04/17 05:19:32;;;;;;;6.72;2.97;;;;;;;6.99;100.00;101200.78;11066194;26;19997;-70
2024/04/17 05:24:33;;;;;;;5.97;2.17;;;;;;;7.00;100.00;101194.38;11063586;26;20309;-70
2024/04/17 05:29:33;;;;;;;4.28;2.22;;;;;;;7.10;100.00;101197.72;11061994;26;20390;-70
2024/04/17 05:34:34;;;;;;;4.45;2.90;;;;;;;7.36;100.00;101194.03;11063981;26;19997;-70
2024/04/17 05:39:34;;;;;;;3.50;1.83;;;;;;;7.36;100.00;101183.25;11062306;26;20037;-71
2024/04/17 05:44:36;;;;;;;5.47;1.52;;;;;;;7.40;100.00;101187.28;11064485;26;20033;-70
2024/04/17 05:49:37;;;;;;;7.88;2.88;;;;;;;7.67;100.00;101181.53;11033481;26;19997;-70
2024/04/17 05:54:37;;;;;;;4.97;2.00;;;;;;;9.30;100.00;101185.25;11064309;26;20008;-69
2024/04/17 05:59:37;;;;;;;11.43;2.45;;;;;;;11.04;100.00;101172.13;11064331;26;20292;-71
2024/04/17 06:04:38;;;;;;;7.85;2.58;;;;;;;12.29;100.00;101183.09;11064595;26;20037;-71
2024/04/17 06:09:38;;;;;;;10.25;2.75;;;;;;;13.06;100.00;101178.31;11064587;26;20334;-71
2024/04/17 06:14:39;;;;;;;5.90;3.53;;;;;;;13.17;100.00;101185.00;11062334;26;20007;-71
2024/04/17 06:19:39;;;;;;;7.18;2.10;;;;;;;11.34;100.00;101187.22;11064148;26;20320;-71
2024/04/17 06:24:40;;;;;;;10.88;2.45;;;;;;;10.30;100.00;101189.44;11063598;26;19993;-70
2024/04/17 06:29:40;;;;;;;5.63;2.53;;;;;;;10.16;100.00;101171.34;11062659;26;20009;-69
2024/04/17 06:34:41;;;;;;;14.73;3.30;;;;;;;11.05;100.00;101181.97;11063245;26;20025;-70
2024/04/17 06:39:41;;;;;;;6.20;2.70;;;;;;;10.70;100.00;101185.34;11063699;26;20074;-69
2024/04/17 06:44:41;;;;;;;2.15;1.23;;;;;;;9.66;100.00;101208.06;11063363;26;20007;-73
2024/04/17 06:49:42;;;;;;;5.13;1.25;;;;;;;7.19;100.00;101230.91;11066726;26;20368;-71
2024/04/17 06:54:42;;;;;;;0.40;0.40;;;;;;;5.89;100.00;101269.72;11062067;26;19996;-73
2024/04/17 06:59:42;;;;;;;0.50;0.50;;;;;;;5.48;100.00;101271.28;11062072;26;19993;-69
2024/04/17 07:04:43;;;;;;;0.50;0.50;;;;;;;4.70;100.00;101231.63;11063507;26;20442;-73
2024/04/17 07:09:43;;;;;;;0.50;0.50;;;;;;;4.62;100.00;101210.06;11064262;26;20071;-72
2024/04/17 07:14:43;;;;;;;0.50;0.50;;;;;;;4.75;100.00;101210.53;11064425;26;20008;-72
2024/04/17 07:19:44;;;;;;;0.50;0.50;;;;;;;4.91;100.00;101201.78;11061084;26;20009;-71
2024/04/17 07:24:44;;;;;;;0.43;0.43;;;;;;;5.07;100.00;101195.72;11060809;26;20008;-72
2024/04/17 07:29:45;;;;;;;0.40;0.40;;;;;;;5.23;100.00;101193.22;11062776;26;20005;-71
2024/04/17 07:34:45;;;;;;;0.70;0.70;;;;;;;5.47;100.00;101189.84;11032161;26;20330;-72
2024/04/17 07:39:45;;;;;;;1.30;1.30;;;;;;;5.76;100.00;101177.94;11062450;26;20007;-71
2024/04/17 07:44:49;;;;;;;0.50;0.50;;;;;;;6.10;100.00;101178.00;11031295;26;20000;-72
2024/04/17 07:49:50;;;;;;;0.50;0.50;;;;;;;6.45;100.00;101176.94;11060511;26;20008;-71
2024/04/17 07:54:50;;;;;;;0.50;0.50;;;;;;;6.74;100.00;101181.88;11061449;26;20037;-73
2024/04/17 07:59:51;;;;;;;0.60;0.60;;;;;;;7.30;100.00;101178.53;11061428;26;20013;-70
2024/04/17 08:04:51;;;;;;;2.05;1.98;;;;;;;8.87;100.00;101167.00;11059755;26;20017;-72
2024/04/17 08:09:52;;;;;;;0.57;0.57;;;;;;;11.16;100.00;101157.88;11061162;26;20026;-73
2024/04/17 08:14:52;;;;;;;0.60;0.60;;;;;;;13.37;100.00;101155.97;11062436;26;20441;-71
2024/04/17 08:19:53;;;;;;;0.30;0.30;;;;;;;14.79;100.00;101151.56;11060634;26;20066;-70
2024/04/17 08:24:53;;;;;;;0.20;0.20;;;;;;;13.48;100.00;101155.31;11061230;26;20009;-70
2024/04/17 08:29:54;;;;;;;0.30;0.30;;;;;;;11.86;100.00;101155.28;11059617;26;20314;-68
2024/04/17 08:34:55;;;;;;;0.82;0.82;;;;;;;10.88;100.00;101149.72;11060819;26;20393;-68
2024/04/17 08:39:55;;;;;;;0.30;0.30;;;;;;;10.41;100.00;101134.81;11060465;26;19993;-68
2024/04/17 08:44:56;;;;;;;0.40;0.40;;;;;;;9.66;100.00;101141.28;11061021;26;20403;-67
2024/04/17 08:49:56;;;;;;;0.30;0.30;;;;;;;8.53;100.00;101168.25;11058039;26;19993;-72
2024/04/17 08:54:56;;;;;;;0.40;0.40;;;;;;;7.64;100.00;101207.97;11058537;26;19997;-72
2024/04/17 08:59:57;;;;;;;1.20;1.20;;;;;;;6.46;100.00;101202.00;11059034;26;20039;-72
2024/04/17 09:04:57;;;;;;;0.50;0.50;;;;;;;5.88;100.00;101191.97;11068933;26;20337;-71
2024/04/17 09:09:57;;;;;;;1.40;1.40;;;;;;;5.83;100.00;101177.13;11035595;26;20001;-69
2024/04/17 09:14:58;;;;;;;0.50;0.50;;;;;;;6.17;100.00;101170.94;11064367;26;20067;-70
2024/04/17 09:19:59;;;;;;;0.60;0.60;;;;;;;6.71;100.00;101168.75;11064579;26;20008;-69
2024/04/17 09:24:59;;;;;;;0.70;0.70;;;;;;;7.41;100.00;101159.34;11066027;26;20001;-70
2024/04/17 09:29:59;;;;;;;0.40;0.40;;;;;;;8.41;100.00;101159.72;11034323;26;20469;-71
2024/04/17 09:35:00;;;;;;;0.50;0.50;;;;;;;8.71;100.00;101147.22;11065445;26;20012;-71
2024/04/17 09:40:07;;;;;;;0.60;0.60;;;;;;;9.06;100.00;101161.13;11065386;26;20024;-72
2024/04/17 09:45:11;;;;;;;0.40;0.40;;;;;;;9.82;100.00;101144.84;11063392;26;19997;-70
2024/04/17 09:50:14;;;;;;;0.50;0.50;;;;;;;12.03;100.00;101144.97;11063485;26;20004;-70
2024/04/17 09:55:15;;;;;;;0.90;0.90;;;;;;;14.62;100.00;101131.31;11064956;26;20012;-68
2024/04/17 10:00:16;;;;;;;0.30;0.30;;;;;;;15.70;100.00;101142.03;11063166;26;20012;-69
2024/04/17 10:05:16;;;;;;;0.40;0.40;;;;;;;15.31;100.00;101144.03;11034802;26;20011;-69
2024/04/17 10:10:17;;;;;;;1.30;1.30;;;;;;;14.03;100.00;101146.84;11062781;26;20021;-70
2024/04/17 10:15:17;;;;;;;0.20;0.20;;;;;;;12.94;100.00;101158.19;11033919;26;20008;-71
2024/04/17 10:20:27;;;;;;;0.40;0.40;;;;;;;12.65;100.00;101165.66;11065075;26;20000;-71
2024/04/17 10:25:28;;;;;;;0.40;0.40;;;;;;;13.59;100.00;101162.03;11064026;26;20012;-69
2024/04/17 10:30:28;;;;;;;0.47;0.47;;;;;;;13.12;100.00;101158.44;11062244;26;20001;-69
2024/04/17 10:35:32;;;;;;;0.20;0.20;;;;;;;11.63;100.00;101169.94;11061288;26;20005;-68
2024/04/17 10:40:32;;;;;;;0.57;0.57;;;;;;;10.29;100.00;101176.94;11063887;26;20436;-67
2024/04/17 10:45:33;;;;;;;0.35;0.35;;;;;;;9.22;100.00;101187.16;11063611;26;20011;-69
2024/04/17 10:50:33;;;;;;;0.40;0.40;;;;;;;8.93;100.00;101196.00;11060912;26;19993;-68
2024/04/17 10:55:33;;;;;;;5.00;3.72;;;;;;;8.88;100.00;101201.13;11062599;26;19997;-70
2024/04/17 11:00:34;;;;;;;0.40;0.40;;;;;;;9.14;100.00;101207.00;11060878;26;20005;-68
2024/04/17 11:05:34;;;;;;;0.60;0.60;;;;;;;8.75;100.00;101210.63;11033284;26;19997;-70
2024/04/17 11:10:35;;;;;;;0.40;0.40;;;;;;;8.70;100.00;101217.59;11062066;26;20333;-69
2024/04/17 11:15:36;;;;;;;0.40;0.40;;;;;;;8.78;100.00;101207.59;11063232;26;20124;-69
2024/04/17 11:20:37;;;;;;;0.57;0.57;;;;;;;9.05;100.00;101202.66;11063387;26;20008;-69
2024/04/17 11:25:38;;;;;;;0.40;0.40;;;;;;;8.97;100.00;101202.75;11034382;26;20326;-72
2024/04/17 11:30:48;;;;;;;0.60;0.60;;;;;;;8.98;100.00;101180.94;11063190;26;20004;-71
2024/04/17 11:36:05;;;;;;;0.40;0.40;;;;;;;9.74;100.00;101173.66;11060662;26;20503;-71
2024/04/17 11:41:06;;;;;;;0.60;0.60;;;;;;;11.63;100.00;101166.38;11032397;26;20008;-71
2024/04/17 11:46:14;;;;;;;0.40;0.40;;;;;;;13.18;100.00;101173.94;11031496;26;20012;-70
2024/04/17 11:51:15;;;;;;;0.45;0.45;;;;;;;14.43;100.00;101171.22;11060226;26;20001;-70
2024/04/17 11:56:15;;;;;;;0.35;0.35;;;;;;;14.95;100.00;101165.72;11061851;26;20007;-70
2024/04/17 12:01:15;;;;;;;0.50;0.50;;;;;;;15.49;100.00;101169.72;11030667;26;20033;-69
2024/04/17 12:06:16;;;;;;;0.50;0.50;;;;;;;15.53;100.00;101176.38;11060719;26;20020;-70
2024/04/17 12:11:16;;;;;;;0.50;0.50;;;;;;;14.68;100.00;101173.22;11061449;26;20080;-69
2024/04/17 12:16:17;;;;;;;6.50;3.35;;;;;;;13.58;100.00;101179.38;11059758;26;19993;-70
2024/04/17 12:21:17;;;;;;;0.47;0.47;;;;;;;13.72;100.00;101172.91;11059735;26;20008;-70
2024/04/17 12:31:36;;;;;;;1.05;1.05;;;;;;;14.59;100.00;101167.19;11061450;26;20441;-70
2024/04/17 12:36:37;;;;;;;0.40;0.40;;;;;;;14.11;100.00;101168.41;11031705;26;20001;-69
2024/04/17 12:41:37;;;;;;;0.40;0.40;;;;;;;13.46;100.00;101168.31;11064871;26;20000;-70
2024/04/17 12:46:38;;;;;;;0.40;0.40;;;;;;;13.44;100.00;101175.00;11066678;26;20008;-69
2024/04/17 12:51:38;;;;;;;0.40;0.40;;;;;;;13.45;100.00;101174.78;11066242;26;20417;-70
2024/04/17 12:56:39;;;;;;;0.43;0.43;;;;;;;14.73;100.00;101178.84;11066461;26;20135;-68
2024/04/17 13:01:40;;;;;;;0.40;0.40;;;;;;;14.94;100.00;101175.78;11065788;26;20001;-68
2024/04/17 13:06:40;;;;;;;0.77;0.77;;;;;;;14.74;100.00;101164.16;11065889;26;20075;-70
2024/04/17 13:11:41;;;;;;;0.40;0.40;;;;;;;14.91;100.00;101172.69;11065876;26;20001;-71
2024/04/17 13:16:41;;;;;;;0.30;0.30;;;;;;;13.67;100.00;101175.41;11065617;26;20008;-70
2024/04/17 13:21:42;;;;;;;0.32;0.32;;;;;;;12.45;100.00;101186.50;11065170;26;20000;-68
2024/04/17 13:26:42;;;;;;;0.60;0.60;;;;;;;10.68;100.00;101208.25;11064298;26;20326;-69
2024/04/17 13:31:42;;;;;;;2.65;1.58;;;;;;;9.20;100.00;101237.88;11067466;26;20336;-76
2024/04/17 13:36:43;;;;;;;0.20;0.20;;;;;;;7.91;100.00;101222.91;11067556;26;20028;-72
2024/04/17 13:41:45;;;;;;;0.40;0.40;;;;;;;7.41;100.00;101229.41;11065705;26;20000;-72
2024/04/17 13:46:45;;;;;;;0.30;0.30;;;;;;;7.13;100.00;101231.56;11064075;26;20000;-74
2024/04/17 13:51:45;;;;;;;0.30;0.30;;;;;;;6.96;100.00;101236.09;11065274;26;20001;-73
2024/04/17 13:56:46;;;;;;;0.40;0.40;;;;;;;6.59;100.00;101239.19;11065397;26;20012;-72
2024/04/17 14:01:49;;;;;;;0.40;0.40;;;;;;;6.33;100.00;101228.50;11064917;26;20436;-74
2024/04/17 14:06:50;;;;;;;0.50;0.50;;;;;;;6.66;100.00;101218.69;11065305;26;20009;-75
2024/04/17 14:11:51;;;;;;;0.65;0.65;;;;;;;7.59;100.00;101216.56;11063299;26;20425;-76
2024/04/17 14:16:53;;;;;;;0.50;0.50;;;;;;;8.94;100.00;101206.63;11065300;26;19997;-72
2024/04/17 14:21:53;;;;;;;0.50;0.50;;;;;;;8.88;100.00;101203.81;11065449;26;19997;-74
2024/04/17 14:26:53;;;;;;;0.50;0.50;;;;;;;8.44;100.00;101183.63;11064576;26;20487;-76
2024/04/17 14:31:54;;;;;;;0.40;0.40;;;;;;;9.69;100.00;101170.66;11063808;26;20012;-74
2024/04/17 14:36:54;;;;;;;0.60;0.60;;;;;;;10.78;100.00;101157.28;11062093;26;20071;-73
2024/04/17 14:41:55;;;;;;;0.40;0.40;;;;;;;10.03;100.00;101174.69;11033330;26;20001;-73
2024/04/17 14:46:55;;;;;;;0.43;0.43;;;;;;;8.55;100.00;101166.19;11061588;26;20046;-73
2024/04/17 14:51:55;;;;;;;0.50;0.50;;;;;;;8.15;100.00;101174.28;11061591;26;20000;-73
2024/04/17 14:56:56;;;;;;;0.32;0.32;;;;;;;8.05;100.00;101181.75;11063731;26;20437;-73
2024/04/17 15:01:56;;;;;;;0.50;0.50;;;;;;;8.04;100.00;101172.00;11059487;26;20074;-73
2024/04/17 15:06:57;;;;;;;0.40;0.40;;;;;;;8.29;100.00;101174.56;11064017;26;20009;-73
2024/04/17 15:11:58;;;;;;;0.40;0.40;;;;;;;8.63;100.00;101173.44;11061738;26;20012;-73
2024/04/17 15:16:59;;;;;;;0.40;0.40;;;;;;;8.72;100.00;101166.97;11063021;26;20337;-71
2024/04/17 15:21:59;;;;;;;0.40;0.40;;;;;;;8.89;100.00;101171.22;11062697;26;20009;-71
2024/04/17 15:27:00;;;;;;;0.40;0.40;;;;;;;8.71;100.00;101168.81;11063132;26;20051;-70
2024/04/17 15:32:00;;;;;;;0.45;0.45;;;;;;;8.29;100.00;101167.31;11060917;26;20029;-70
2024/04/17 15:37:01;;;;;;;0.40;0.40;;;;;;;7.77;100.00;101173.25;11063318;26;20005;-72
2024/04/17 15:42:01;;;;;;;0.50;0.50;;;;;;;7.48;100.00;101187.28;11064747;26;20008;-71
2024/04/17 15:47:02;;;;;;;0.50;0.50;;;;;;;7.55;100.00;101180.19;11063746;26;20420;-70
2024/04/17 15:52:03;;;;;;;0.47;0.47;;;;;;;8.02;100.00;101182.09;11061299;26;20004;-73
2024/04/17 15:57:04;;;;;;;2.53;2.33;;;;;;;8.16;100.00;101162.47;11062382;26;19997;-70
2024/04/17 16:02:04;;;;;;;0.47;0.47;;;;;;;8.37;100.00;101174.53;11061644;26;20008;-70
2024/04/17 16:07:04;;;;;;;0.50;0.50;;;;;;;8.44;100.00;101175.53;11061284;26;20009;-70
2024/04/17 16:12:05;;;;;;;0.50;0.50;;;;;;;8.44;100.00;101166.63;11063711;26;20028;-70
2024/04/17 16:17:05;;;;;;;0.57;0.57;;;;;;;8.25;100.00;101162.47;11066741;26;20013;-71
2024/04/17 16:22:07;;;;;;;0.40;0.40;;;;;;;7.81;100.00;101189.91;11066931;26;20397;-70
2024/04/17 16:27:08;;;;;;;0.45;0.45;;;;;;;6.86;100.00;101201.25;11068699;26;20008;-75
2024/04/17 16:32:09;;;;;;;0.50;0.50;;;;;;;6.43;100.00;101197.78;11064988;26;20008;-76
2024/04/17 16:37:10;;;;;;;0.77;0.77;;;;;;;6.41;100.00;101204.31;11066331;26;20007;-74
2024/04/17 16:42:10;;;;;;;0.60;0.60;;;;;;;6.44;100.00;101198.59;11066587;26;20001;-75
2024/04/17 16:47:11;;;;;;;0.50;0.50;;;;;;;6.69;100.00;101204.91;11066762;26;19997;-74
2024/04/17 16:52:11;;;;;;;0.50;0.50;;;;;;;6.87;100.00;101205.63;11066795;26;20012;-73
2024/04/17 16:57:11;;;;;;;0.40;0.40;;;;;;;7.06;100.00;101195.56;11067325;26;20001;-74
2024/04/17 17:02:12;;;;;;;0.50;0.50;;;;;;;7.05;100.00;101210.88;11067035;26;20004;-72
2024/04/17 17:07:12;;;;;;;0.60;0.60;;;;;;;6.77;100.00;101204.09;11066335;26;20325;-72
2024/04/17 17:12:13;;;;;;;0.47;0.47;;;;;;;6.67;100.00;101193.47;11066500;26;20041;-73
2024/04/17 17:17:13;;;;;;;0.60;0.60;;;;;;;6.68;100.00;101200.53;11067045;26;20011;-74
2024/04/17 17:22:16;;;;;;;0.57;0.57;;;;;;;6.68;100.00;101200.53;11064045;26;20490;-73
2024/04/17 17:27:16;;;;;;;0.40;0.40;;;;;;;6.63;100.00;101206.41;11066581;26;20001;-72
2024/04/17 17:32:17;;;;;;;0.95;0.95;;;;;;;6.56;100.00;101207.22;11064986;26;20433;-74
2024/04/17 17:37:17;;;;;;;0.50;0.50;;;;;;;6.55;100.00;101205.56;11062724;26;20017;-74
2024/04/17 17:42:17;;;;;;;0.60;0.60;;;;;;;6.56;100.00;101208.06;11065013;26;20047;-76
2024/04/17 17:47:18;;;;;;;0.50;0.50;;;;;;;6.56;100.00;101210.75;11034699;26;20001;-74
2024/04/17 17:52:18;;;;;;;0.50;0.50;;;;;;;6.52;100.00;101212.09;11065342;26;20400;-76
2024/04/17 17:57:18;;;;;;;0.60;0.60;;;;;;;6.37;100.00;101211.03;11065906;26;19996;-72
2024/04/17 18:02:19;;;;;;;0.50;0.50;;;;;;;6.24;100.00;101223.06;11070059;26;20000;-74
2024/04/17 18:07:20;;;;;;;0.70;0.70;;;;;;;6.20;100.00;101223.56;11064447;26;20011;-73
2024/04/17 18:12:20;;;;;;;0.60;0.60;;;;;;;6.21;100.00;101223.41;11065091;26;20358;-73
2024/04/17 18:17:20;;;;;;;0.98;0.98;;;;;;;6.18;100.00;101228.25;11034926;26;20011;-71
2024/04/17 18:22:21;;;;;;;0.50;0.50;;;;;;;6.12;100.00;101232.44;11065429;26;20005;-71
2024/04/17 18:27:21;;;;;;;0.60;0.60;;;;;;;5.92;100.00;101233.63;11064620;26;20001;-71
2024/04/17 18:32:22;;;;;;;0.57;0.57;;;;;;;5.66;100.00;101236.31;11063702;26;20024;-72
2024/04/17 18:37:22;;;;;;;0.57;0.57;;;;;;;5.47;100.00;101240.03;11061588;26;20009;-71
2024/04/17 18:42:22;;;;;;;0.60;0.60;;;;;;;5.32;100.00;101245.13;11060764;26;20384;-72
2024/04/17 18:47:23;;;;;;;0.50;0.50;;;;;;;5.22;100.00;101258.63;11061183;26;20070;-73
2024/04/17 18:52:23;;;;;;;0.60;0.60;;;;;;;5.21;100.00;101254.25;11062327;26;19999;-73
2024/04/17 18:57:23;;;;;;;0.60;0.60;;;;;;;5.23;100.00;101252.28;11063411;26;20021;-74
2024/04/17 19:02:24;;;;;;;0.60;0.60;;;;;;;5.31;100.00;101257.72;11061198;26;20085;-74
2024/04/17 19:07:24;;;;;;;0.60;0.60;;;;;;;5.44;100.00;101248.41;11061994;26;20001;-71
2024/04/17 19:12:24;;;;;;;0.65;0.65;;;;;;;5.57;100.00;101255.06;11061532;26;20001;-70
2024/04/17 19:17:25;;;;;;;0.70;0.70;;;;;;;5.52;100.00;101261.91;11059761;26;19997;-74
2024/04/17 19:22:25;;;;;;;0.60;0.60;;;;;;;5.42;100.00;101275.41;11062109;26;20052;-72
2024/04/17 19:27:26;;;;;;;0.60;0.60;;;;;;;5.29;100.00;101270.44;11061762;26;20078;-73
2024/04/17 19:32:26;;;;;;;1.25;1.25;;;;;;;5.24;100.00;101283.50;11059125;26;19997;-72
2024/04/17 19:37:27;;;;;;;0.50;0.50;;;;;;;5.17;100.00;101286.94;11061790;26;20320;-71
2024/04/17 19:42:29;;;;;;;0.65;0.65;;;;;;;5.07;100.00;101281.63;11060894;26;20431;-73
2024/04/17 19:47:29;;;;;;;0.70;0.70;;;;;;;4.99;100.00;101284.25;11057680;26;20005;-74
2024/04/17 19:52:30;;;;;;;0.77;0.77;;;;;;;4.93;100.00;101295.59;11060277;26;20460;-70
2024/04/17 19:57:33;;;;;;;0.60;0.60;;;;;;;4.88;100.00;101296.00;11059971;26;20008;-71
2024/04/17 20:02:34;;;;;;;0.60;0.60;;;;;;;4.88;100.00;101302.25;11059989;26;20008;-70
2024/04/17 20:07:34;;;;;;;0.52;0.52;;;;;;;4.85;100.00;101297.19;11060396;26;20012;-69
2024/04/17 20:12:34;;;;;;;0.60;0.60;;;;;;;4.92;100.00;101307.31;11059460;26;20139;-69
2024/04/17 20:17:35;;;;;;;0.50;0.50;;;;;;;4.96;100.00;101319.44;11061548;26;19993;-72
2024/04/17 20:22:35;;;;;;;0.57;0.57;;;;;;;4.79;100.00;101318.41;11060745;26;20001;-74
2024/04/17 20:27:36;;;;;;;0.60;0.60;;;;;;;4.61;100.00;101318.34;11060535;26;20377;-71
2024/04/17 20:32:36;;;;;;;0.70;0.70;;;;;;;4.46;100.00;101327.88;11060039;26;20012;-71
2024/04/17 20:37:36;;;;;;;0.52;0.52;;;;;;;4.37;100.00;101327.78;11060435;26;20338;-71
2024/04/17 20:42:37;;;;;;;0.70;0.70;;;;;;;4.43;100.00;101326.31;11057667;26;20008;-72
2024/04/17 20:47:37;;;;;;;0.60;0.60;;;;;;;4.58;100.00;101343.63;11059605;26;19997;-73
2024/04/17 20:52:37;;;;;;;0.50;0.50;;;;;;;4.60;100.00;101340.81;11060201;26;20008;-71
2024/04/17 20:57:38;;;;;;;0.70;0.70;;;;;;;4.66;100.00;101350.94;11062643;26;20132;-71
2024/04/17 21:02:38;;;;;;;0.50;0.50;;;;;;;4.68;100.00;101351.63;11066500;26;19993;-71
2024/04/17 21:07:39;;;;;;;3.55;0.98;;;;;;;4.62;100.00;101355.75;11065780;26;20005;-72
2024/04/17 21:12:39;;;;;;;0.70;0.70;;;;;;;4.54;100.00;101352.13;11064818;26;20001;-70
2024/04/17 21:17:40;;;;;;;0.68;0.68;;;;;;;4.40;100.00;101358.78;11064789;26;20096;-70
2024/04/17 21:22:43;;;;;;;0.60;0.60;;;;;;;4.28;100.00;101363.50;11036117;26;20037;-70
2024/04/17 21:27:44;;;;;;;0.80;0.80;;;;;;;4.17;100.00;101372.53;11065269;26;20013;-72
2024/04/17 21:32:45;;;;;;;0.70;0.70;;;;;;;4.12;100.00;101380.19;11064998;26;20319;-72
2024/04/17 21:37:45;;;;;;;0.60;0.60;;;;;;;4.02;100.00;101383.84;11065731;26;20007;-71
2024/04/17 21:42:46;;;;;;;0.60;0.60;;;;;;;3.92;100.00;101387.41;11065769;26;20000;-70
2024/04/17 21:47:46;;;;;;;0.60;0.60;;;;;;;3.82;100.00;101391.91;11064286;26;20029;-72
2024/04/17 21:52:47;;;;;;;0.60;0.60;;;;;;;3.75;100.00;101401.50;11065186;26;20515;-74
2024/04/17 21:57:47;;;;;;;0.43;0.43;;;;;;;3.66;100.00;101407.69;11065161;26;20133;-71
2024/04/17 22:02:47;;;;;;;0.90;0.90;;;;;;;3.57;100.00;101408.53;11063319;26;20012;-72
2024/04/17 22:07:48;;;;;;;0.70;0.70;;;;;;;3.50;100.00;101416.28;11064214;26;20052;-73
2024/04/17 22:12:48;;;;;;;0.60;0.60;;;;;;;3.39;100.00;101425.28;11064944;26;20008;-72
2024/04/17 22:17:49;;;;;;;0.60;0.60;;;;;;;3.35;100.00;101428.34;11065154;26;20048;-71
2024/04/17 22:22:49;;;;;;;0.80;0.80;;;;;;;3.30;100.00;101433.28;11064740;26;20072;-72
2024/04/17 22:27:50;;;;;;;0.60;0.60;;;;;;;3.29;100.00;101447.63;11063983;26;20340;-71
2024/04/17 22:32:50;;;;;;;0.60;0.60;;;;;;;3.22;100.00;101448.22;11062813;26;20011;-73
2024/04/17 22:37:52;;;;;;;0.55;0.55;;;;;;;3.18;100.00;101460.16;11063554;26;20329;-73
2024/04/17 22:42:52;;;;;;;0.43;0.43;;;;;;;3.14;100.00;101455.22;11065228;26;20008;-73
2024/04/17 22:47:52;;;;;;;0.70;0.70;;;;;;;3.10;100.00;101469.84;11064135;26;20017;-72
2024/04/17 22:52:53;;;;;;;0.60;0.60;;;;;;;3.06;100.00;101473.75;11061474;26;20389;-72
2024/04/17 22:57:53;;;;;;;0.77;0.77;;;;;;;3.05;100.00;101474.75;11063920;26;20001;-72
2024/04/17 23:02:55;;;;;;;0.50;0.50;;;;;;;3.00;100.00;101483.19;11062962;26;20001;-74